Time;durP1;ratioP1;P1;durP2;ratioP2;P2;SDS_P1;SDS_P2;PMS_P1;PMS_P2;Temp;Humidity;BMP_temperature;BMP_pressure;BME280_temperature;BME280_humidity;BME280_pressure;Samples;Min_cycle;Max_cycle;Signal;HPM_P1;HPM_P2
2022/10/16 00:01:25;;;;;;;1.37;1.03;;;12.70;99.90;;;;;;6250822;23;20159;-47
2022/10/16 00:03:50;;;;;;;3.90;1.10;;;12.70;99.90;;;;;;6250389;23;20171;-47
2022/10/16 00:06:18;;;;;;;2.43;0.90;;;12.70;99.90;;;;;;6250295;23;20183;-45
2022/10/16 00:08:44;;;;;;;3.33;1.10;;;12.70;99.90;;;;;;6251058;22;20175;-45
2022/10/16 00:11:16;;;;;;;5.73;1.30;;;12.70;99.90;;;;;;6223185;23;20542;-46
2022/10/16 00:13:43;;;;;;;4.13;1.10;;;12.70;99.90;;;;;;6249832;23;20469;-46
2022/10/16 00:16:10;;;;;;;2.13;0.93;;;12.70;99.90;;;;;;6249862;23;20465;-46
2022/10/16 00:18:37;;;;;;;4.53;1.00;;;12.70;99.90;;;;;;6250214;22;20180;-46
2022/10/16 00:21:17;;;;;;;1.93;1.40;;;12.70;99.90;;;;;;6249858;23;20262;-45
2022/10/16 00:23:42;;;;;;;1.20;1.10;;;12.70;99.90;;;;;;6249811;23;20191;-44
2022/10/16 00:26:12;;;;;;;2.17;1.00;;;12.70;99.90;;;;;;6250114;23;20217;-44
2022/10/16 00:28:38;;;;;;;2.77;1.13;;;12.80;99.90;;;;;;6250083;22;20167;-45
2022/10/16 00:31:09;;;;;;;1.27;0.90;;;12.70;99.90;;;;;;6249916;23;20156;-45
2022/10/16 00:33:36;;;;;;;1.37;0.90;;;12.70;99.90;;;;;;6249996;23;20194;-46
2022/10/16 00:36:03;;;;;;;3.53;1.33;;;12.80;99.90;;;;;;6250176;23;20182;-46
2022/10/16 00:38:29;;;;;;;2.93;1.20;;;12.70;99.90;;;;;;6249544;22;20210;-43
2022/10/16 00:40:54;;;;;;;2.83;1.00;;;12.70;99.90;;;;;;6249760;23;20159;-45
2022/10/16 00:43:40;;;;;;;1.30;1.10;;;12.70;99.90;;;;;;6249508;23;20179;-46
2022/10/16 00:46:28;;;;;;;1.37;1.20;;;12.70;99.90;;;;;;6222545;23;20162;-47
2022/10/16 00:48:57;;;;;;;0.80;0.80;;;12.70;99.90;;;;;;6248139;23;20559;-43
2022/10/16 00:51:29;;;;;;;4.37;1.30;;;12.60;99.90;;;;;;6248316;23;20166;-42
2022/10/16 00:53:56;;;;;;;1.80;1.03;;;12.60;99.90;;;;;;6248088;23;20430;-39
2022/10/16 00:56:21;;;;;;;2.33;1.10;;;12.50;99.90;;;;;;6247671;23;20712;-42
2022/10/16 00:58:47;;;;;;;2.37;1.17;;;12.60;99.90;;;;;;6247830;22;20180;-39
2022/10/16 01:01:12;;;;;;;1.33;1.07;;;12.50;99.90;;;;;;6248126;23;20179;-43
2022/10/16 01:03:38;;;;;;;3.07;1.10;;;12.40;99.90;;;;;;6247316;23;20184;-39
2022/10/16 01:06:15;;;;;;;2.77;1.13;;;12.40;99.90;;;;;;6248177;23;20152;-41
2022/10/16 01:08:58;;;;;;;3.43;1.10;;;12.40;99.90;;;;;;6247505;22;20175;-39
2022/10/16 01:11:50;;;;;;;1.30;0.97;;;12.40;99.90;;;;;;6247560;23;20136;-41
2022/10/16 01:14:37;;;;;;;2.47;0.87;;;12.40;99.90;;;;;;6247789;23;20523;-39
2022/10/16 01:17:10;;;;;;;2.40;1.30;;;12.30;99.90;;;;;;6247265;22;20282;-41
2022/10/16 01:19:54;;;;;;;1.80;1.20;;;12.30;99.90;;;;;;6247434;23;20152;-42
2022/10/16 01:22:22;;;;;;;1.27;1.00;;;12.30;99.90;;;;;;6247313;23;20195;-41
2022/10/16 01:24:49;;;;;;;1.17;1.03;;;12.30;99.90;;;;;;6247633;23;20152;-42
2022/10/16 01:27:30;;;;;;;2.17;1.23;;;12.30;99.90;;;;;;6247262;22;20172;-40
2022/10/16 01:30:09;;;;;;;2.07;1.00;;;12.20;99.90;;;;;;6247547;23;20226;-40
2022/10/16 01:32:41;;;;;;;1.67;1.30;;;12.30;99.90;;;;;;6247526;23;20143;-41
2022/10/16 01:35:34;;;;;;;1.47;1.30;;;12.30;99.90;;;;;;6247589;23;20156;-41
2022/10/16 01:38:19;;;;;;;2.37;0.90;;;12.30;99.90;;;;;;6248186;22;20211;-43
2022/10/16 01:40:56;;;;;;;1.37;1.10;;;12.30;99.90;;;;;;6249249;23;20680;-40
2022/10/16 01:43:27;;;;;;;3.73;1.10;;;12.30;99.90;;;;;;6249608;23;20228;-41
2022/10/16 01:45:53;;;;;;;3.57;1.20;;;12.30;99.90;;;;;;6247419;23;20147;-41
2022/10/16 01:48:21;;;;;;;1.93;1.00;;;12.30;99.90;;;;;;6220435;23;20167;-40
2022/10/16 01:50:56;;;;;;;1.77;1.30;;;12.30;99.90;;;;;;6246942;23;20177;-40
2022/10/16 01:53:23;;;;;;;1.50;1.20;;;12.30;99.90;;;;;;6247482;23;20136;-41
2022/10/16 01:55:52;;;;;;;2.07;1.40;;;12.30;99.90;;;;;;6247342;23;20159;-40
2022/10/16 01:58:17;;;;;;;2.50;1.50;;;12.30;99.90;;;;;;6247827;22;20249;-39
2022/10/16 02:00:46;;;;;;;2.97;1.40;;;12.30;99.90;;;;;;6246622;23;20594;-41
2022/10/16 02:03:14;;;;;;;2.73;0.90;;;12.30;99.90;;;;;;6247250;23;20184;-42
2022/10/16 02:05:51;;;;;;;1.20;1.10;;;12.30;99.90;;;;;;6246837;23;20154;-40
2022/10/16 02:08:17;;;;;;;2.00;1.03;;;12.40;99.90;;;;;;6247044;22;20201;-41
2022/10/16 02:10:42;;;;;;;1.93;0.90;;;12.40;99.90;;;;;;6246858;23;20159;-41
2022/10/16 02:13:46;;;;;;;2.37;0.90;;;12.40;99.90;;;;;;6246734;23;20156;-39
2022/10/16 02:16:13;;;;;;;1.70;1.00;;;12.50;99.90;;;;;;6228151;23;20163;-41
2022/10/16 02:18:40;;;;;;;1.33;0.93;;;12.40;99.90;;;;;;6247348;22;20335;-41
2022/10/16 02:21:09;;;;;;;1.67;0.70;;;12.50;99.90;;;;;;6246763;23;20487;-40
2022/10/16 02:24:22;;;;;;;1.13;0.63;;;12.50;99.90;;;;;;6246502;23;20262;-40
2022/10/16 02:26:56;;;;;;;1.50;0.70;;;12.60;99.90;;;;;;6138913;23;20559;-42
2022/10/16 02:29:26;;;;;;;2.97;0.90;;;12.60;99.90;;;;;;6247096;23;20139;-41
2022/10/16 02:31:57;;;;;;;1.20;0.80;;;12.70;99.90;;;;;;6246684;23;20505;-42
2022/10/16 02:34:25;;;;;;;1.93;0.80;;;12.70;99.90;;;;;;6219810;23;20155;-40
2022/10/16 02:36:52;;;;;;;0.80;0.70;;;12.70;99.90;;;;;;6246559;22;20653;-40
2022/10/16 02:39:19;;;;;;;0.60;0.60;;;12.70;99.90;;;;;;6246832;23;20404;-41
2022/10/16 02:41:45;;;;;;;1.27;0.70;;;12.80;99.90;;;;;;6246721;23;20160;-41
2022/10/16 02:44:10;;;;;;;2.83;0.80;;;12.80;99.90;;;;;;6246768;23;20510;-43
2022/10/16 02:46:36;;;;;;;1.10;0.80;;;12.80;99.90;;;;;;6246722;22;20194;-41
2022/10/16 02:49:01;;;;;;;2.70;0.70;;;12.80;99.90;;;;;;6246333;23;20232;-42
2022/10/16 02:51:27;;;;;;;3.73;1.00;;;12.80;99.90;;;;;;6246808;23;20156;-41
2022/10/16 02:53:52;;;;;;;2.37;0.60;;;12.70;99.90;;;;;;6246433;23;20483;-40
2022/10/16 02:56:18;;;;;;;1.13;0.80;;;12.70;99.90;;;;;;6246298;23;20152;-43
2022/10/16 02:58:44;;;;;;;1.33;0.97;;;12.70;99.90;;;;;;6246686;22;20416;-40
2022/10/16 03:01:10;;;;;;;1.07;0.80;;;12.60;99.90;;;;;;6246260;23;20489;-42
2022/10/16 03:03:35;;;;;;;2.03;1.10;;;12.70;99.90;;;;;;6246634;23;20183;-42
2022/10/16 03:06:01;;;;;;;1.60;0.80;;;12.70;99.90;;;;;;6246501;23;20234;-42
2022/10/16 03:08:27;;;;;;;4.23;0.80;;;12.70;99.90;;;;;;6246136;22;20182;-41
2022/10/16 03:10:52;;;;;;;1.23;0.60;;;12.70;99.90;;;;;;6246469;23;20601;-41
2022/10/16 03:13:20;;;;;;;0.93;0.60;;;12.70;99.90;;;;;;6219350;23;20502;-40
2022/10/16 03:15:46;;;;;;;3.40;0.70;;;12.70;99.90;;;;;;6246648;23;20159;-40
2022/10/16 03:18:11;;;;;;;1.30;0.77;;;12.70;99.90;;;;;;6246329;22;20171;-42
2022/10/16 03:20:37;;;;;;;1.87;0.80;;;12.70;99.90;;;;;;6246792;23;20542;-43
2022/10/16 03:23:03;;;;;;;1.77;0.60;;;12.70;99.90;;;;;;6246642;23;20183;-43
2022/10/16 03:25:28;;;;;;;0.90;0.70;;;12.70;99.90;;;;;;6246872;23;20152;-45
2022/10/16 03:27:54;;;;;;;0.93;0.67;;;12.70;99.90;;;;;;6219441;23;20282;-45
2022/10/16 03:30:20;;;;;;;0.70;0.70;;;12.70;99.90;;;;;;6246563;23;20201;-42
2022/10/16 03:32:46;;;;;;;1.33;0.77;;;12.60;99.90;;;;;;6219618;23;20163;-44
2022/10/16 03:35:12;;;;;;;2.30;0.60;;;12.60;99.90;;;;;;6219569;23;20206;-43
2022/10/16 03:37:38;;;;;;;1.37;0.70;;;12.60;99.90;;;;;;6246373;22;20267;-44
2022/10/16 03:40:04;;;;;;;1.20;0.77;;;12.50;99.90;;;;;;6246543;23;20156;-45
2022/10/16 03:42:30;;;;;;;0.97;0.70;;;12.50;99.90;;;;;;6219256;23;20187;-45
2022/10/16 03:44:55;;;;;;;0.70;0.70;;;12.40;99.90;;;;;;6246480;23;20589;-43
2022/10/16 03:47:23;;;;;;;3.70;0.80;;;12.40;99.90;;;;;;6246388;22;20179;-46
2022/10/16 03:49:49;;;;;;;1.63;0.67;;;12.40;99.90;;;;;;6246316;23;20155;-43
2022/10/16 03:52:14;;;;;;;0.80;0.70;;;12.30;99.90;;;;;;6246147;23;20262;-43
2022/10/16 03:54:40;;;;;;;1.83;0.60;;;12.30;99.90;;;;;;6246696;23;20158;-44
2022/10/16 03:57:05;;;;;;;4.00;1.17;;;12.30;99.90;;;;;;6245947;22;20175;-44
2022/10/16 03:59:31;;;;;;;4.03;1.00;;;12.30;99.90;;;;;;6246143;23;20152;-44
2022/10/16 04:01:57;;;;;;;1.17;0.67;;;12.30;99.90;;;;;;6245882;23;20226;-45
2022/10/16 04:04:22;;;;;;;1.47;0.80;;;12.30;99.90;;;;;;6246381;23;20151;-44
2022/10/16 04:06:48;;;;;;;0.83;0.80;;;12.20;99.90;;;;;;6245917;22;20179;-43
2022/10/16 04:09:13;;;;;;;1.77;0.73;;;12.20;99.90;;;;;;6246050;23;20156;-46
2022/10/16 04:11:39;;;;;;;1.80;0.90;;;12.20;99.90;;;;;;6246209;23;20152;-42
2022/10/16 04:14:04;;;;;;;0.70;0.70;;;12.20;99.90;;;;;;6246152;23;20170;-46
2022/10/16 04:16:30;;;;;;;0.93;0.60;;;12.20;99.90;;;;;;6245950;22;20160;-45
2022/10/16 04:18:55;;;;;;;2.00;0.83;;;12.20;99.90;;;;;;6246250;23;20604;-43
2022/10/16 04:21:22;;;;;;;2.33;0.80;;;12.10;99.90;;;;;;6246041;23;20205;-44
2022/10/16 04:23:47;;;;;;;1.20;0.87;;;12.10;99.90;;;;;;6246136;23;20175;-44
2022/10/16 04:26:13;;;;;;;1.17;0.90;;;12.10;99.90;;;;;;6247998;23;20220;-42
2022/10/16 04:28:38;;;;;;;2.00;1.10;;;12.00;99.90;;;;;;6221138;23;20180;-44
2022/10/16 04:31:05;;;;;;;1.70;0.90;;;12.00;99.90;;;;;;6248205;23;20155;-45
2022/10/16 04:33:30;;;;;;;3.80;0.90;;;12.00;99.90;;;;;;6247934;23;20202;-45
2022/10/16 04:35:58;;;;;;;1.93;0.90;;;11.90;99.90;;;;;;6247889;23;20179;-43
2022/10/16 04:38:23;;;;;;;1.33;0.90;;;11.90;99.90;;;;;;6248087;22;20183;-45
2022/10/16 04:40:49;;;;;;;1.03;1.00;;;11.90;99.90;;;;;;6249020;23;20159;-46
2022/10/16 04:43:14;;;;;;;3.23;0.90;;;11.80;99.90;;;;;;6248202;23;20517;-45
2022/10/16 04:45:40;;;;;;;0.80;0.80;;;11.80;99.90;;;;;;6248309;23;20148;-41
2022/10/16 04:48:05;;;;;;;2.37;1.00;;;11.80;99.90;;;;;;6248238;22;20254;-46
2022/10/16 04:50:31;;;;;;;3.00;0.90;;;11.70;99.90;;;;;;6248550;23;20222;-43
2022/10/16 04:52:57;;;;;;;1.20;1.07;;;11.80;99.90;;;;;;6221989;23;20664;-45
2022/10/16 04:55:22;;;;;;;1.37;0.97;;;11.80;99.90;;;;;;6248527;23;20166;-43
2022/10/16 04:57:48;;;;;;;2.17;0.80;;;11.70;99.90;;;;;;6248644;22;20175;-44
2022/10/16 05:00:14;;;;;;;2.63;1.00;;;11.60;99.90;;;;;;6249765;23;20208;-46
2022/10/16 05:02:39;;;;;;;2.03;0.97;;;11.70;99.90;;;;;;6226589;23;20186;-44
2022/10/16 05:05:05;;;;;;;1.33;0.80;;;11.60;99.90;;;;;;6249061;23;20178;-44
2022/10/16 05:07:31;;;;;;;2.67;1.20;;;11.50;99.90;;;;;;6248120;22;20175;-45
2022/10/16 05:09:56;;;;;;;3.40;0.90;;;11.50;99.90;;;;;;6248114;23;20152;-44
2022/10/16 05:12:22;;;;;;;2.00;1.10;;;11.50;99.90;;;;;;6249181;23;20159;-45
2022/10/16 05:14:47;;;;;;;0.83;0.83;;;11.60;99.90;;;;;;6247837;23;20183;-43
2022/10/16 05:17:13;;;;;;;3.43;1.00;;;11.50;99.90;;;;;;6247982;22;20183;-44
2022/10/16 05:19:39;;;;;;;1.50;1.00;;;11.50;99.90;;;;;;6247762;23;20162;-45
2022/10/16 05:22:04;;;;;;;1.20;0.97;;;11.50;99.90;;;;;;6247455;23;20597;-44
2022/10/16 05:24:30;;;;;;;1.10;1.00;;;11.50;99.90;;;;;;6248191;23;20609;-44
2022/10/16 05:26:55;;;;;;;2.87;1.30;;;11.50;99.90;;;;;;6247855;22;20175;-43
2022/10/16 05:29:21;;;;;;;1.70;1.20;;;11.50;99.90;;;;;;6247801;23;20205;-43
2022/10/16 05:31:50;;;;;;;2.40;1.20;;;11.50;99.90;;;;;;6220583;23;20661;-46
2022/10/16 05:34:16;;;;;;;1.20;1.00;;;11.50;99.90;;;;;;6247572;23;20641;-44
2022/10/16 05:36:41;;;;;;;2.90;0.93;;;11.50;99.90;;;;;;6246445;22;20210;-46
2022/10/16 05:39:07;;;;;;;1.23;1.00;;;11.50;99.90;;;;;;6247711;23;20205;-44
2022/10/16 05:41:33;;;;;;;1.23;1.10;;;11.50;99.90;;;;;;6247502;23;20155;-46
2022/10/16 05:43:58;;;;;;;1.20;1.10;;;11.50;99.90;;;;;;6220526;23;20491;-44
2022/10/16 05:46:24;;;;;;;1.90;1.20;;;11.50;99.90;;;;;;6247894;22;20491;-45
2022/10/16 05:48:53;;;;;;;2.37;1.10;;;11.60;99.90;;;;;;6248128;23;20545;-44
2022/10/16 05:51:18;;;;;;;2.17;1.20;;;11.60;99.90;;;;;;6247491;23;20154;-46
2022/10/16 05:53:44;;;;;;;1.30;1.20;;;11.60;99.90;;;;;;6247231;23;20163;-44
2022/10/16 05:56:11;;;;;;;1.63;1.20;;;11.60;99.90;;;;;;6247678;23;20169;-43
2022/10/16 05:58:40;;;;;;;1.73;1.23;;;11.60;99.90;;;;;;6247240;22;20182;-46
2022/10/16 06:01:16;;;;;;;2.77;0.97;;;11.60;99.90;;;;;;6247596;23;20159;-46
2022/10/16 06:03:42;;;;;;;1.30;1.13;;;11.50;99.90;;;;;;6247412;23;20233;-47
2022/10/16 06:06:15;;;;;;;1.30;1.20;;;11.60;99.90;;;;;;6247288;23;20589;-44
2022/10/16 06:08:42;;;;;;;1.33;1.20;;;11.50;99.90;;;;;;6221926;23;20172;-44
2022/10/16 06:11:13;;;;;;;1.67;1.13;;;11.50;99.90;;;;;;6247330;23;20557;-43
2022/10/16 06:13:42;;;;;;;1.70;1.40;;;11.60;99.90;;;;;;6247358;23;20608;-44
2022/10/16 06:16:08;;;;;;;1.20;1.10;;;11.50;99.90;;;;;;6247507;23;20163;-43
2022/10/16 06:18:34;;;;;;;1.20;1.10;;;11.50;99.90;;;;;;6247772;22;20178;-45
2022/10/16 06:20:59;;;;;;;1.23;0.97;;;11.60;99.90;;;;;;6247468;23;20174;-44
2022/10/16 06:23:25;;;;;;;2.13;1.20;;;11.70;99.90;;;;;;6247029;23;20282;-44
2022/10/16 06:25:51;;;;;;;2.87;1.27;;;11.80;99.90;;;;;;6246916;23;20147;-47
2022/10/16 06:28:16;;;;;;;5.00;1.30;;;11.90;99.90;;;;;;6247062;22;20298;-44
2022/10/16 06:30:45;;;;;;;2.40;1.40;;;11.90;99.90;;;;;;6247462;23;20147;-44
2022/10/16 06:33:11;;;;;;;2.20;1.20;;;12.00;99.90;;;;;;6247240;23;20155;-43
2022/10/16 06:35:37;;;;;;;2.57;1.00;;;12.10;99.90;;;;;;6247037;23;20663;-44
2022/10/16 06:38:02;;;;;;;1.33;1.20;;;12.10;99.90;;;;;;6247270;22;20179;-44
2022/10/16 06:40:28;;;;;;;1.73;1.30;;;12.10;99.90;;;;;;6246836;23;20213;-44
2022/10/16 06:42:57;;;;;;;2.73;1.40;;;12.20;99.90;;;;;;6246894;23;20580;-45
2022/10/16 06:45:22;;;;;;;3.50;1.30;;;12.20;99.90;;;;;;6246760;23;20155;-45
2022/10/16 06:47:48;;;;;;;1.73;1.27;;;12.20;99.90;;;;;;6246746;22;20233;-45
2022/10/16 06:50:13;;;;;;;1.20;1.10;;;12.20;99.90;;;;;;6247157;23;20151;-44
2022/10/16 06:52:39;;;;;;;3.30;1.40;;;12.20;99.90;;;;;;6248003;23;20166;-45
2022/10/16 06:55:05;;;;;;;1.30;1.20;;;12.20;99.90;;;;;;6246671;23;20155;-43
2022/10/16 06:57:31;;;;;;;1.40;1.30;;;12.20;99.90;;;;;;6247128;22;20242;-43
2022/10/16 06:59:56;;;;;;;3.97;1.10;;;12.20;99.90;;;;;;6246841;23;20545;-46
2022/10/16 07:02:22;;;;;;;4.30;1.23;;;12.20;99.90;;;;;;6247193;23;20179;-45
2022/10/16 07:04:47;;;;;;;1.43;1.30;;;12.30;99.90;;;;;;6247040;23;20152;-45
2022/10/16 07:07:13;;;;;;;5.80;1.33;;;12.30;99.90;;;;;;6247977;22;20174;-43
2022/10/16 07:09:40;;;;;;;2.63;1.17;;;12.20;99.90;;;;;;6247580;23;20520;-46
2022/10/16 07:12:05;;;;;;;4.23;1.20;;;12.20;99.90;;;;;;6246811;23;20155;-43
2022/10/16 07:14:31;;;;;;;1.33;1.13;;;12.20;99.90;;;;;;6246524;23;20151;-44
2022/10/16 07:16:57;;;;;;;7.03;1.33;;;12.20;99.90;;;;;;6246660;22;20171;-46
2022/10/16 07:19:22;;;;;;;2.47;1.30;;;12.20;99.90;;;;;;6247254;23;20152;-44
2022/10/16 07:21:48;;;;;;;4.73;1.40;;;12.20;99.90;;;;;;6246215;23;20178;-45
2022/10/16 07:24:16;;;;;;;1.27;1.17;;;12.20;99.90;;;;;;6246391;23;20179;-45
2022/10/16 07:26:43;;;;;;;1.63;1.53;;;12.20;99.90;;;;;;6246583;22;20151;-44
2022/10/16 07:29:16;;;;;;;2.30;1.30;;;12.20;99.90;;;;;;6246390;23;20242;-46
2022/10/16 07:31:42;;;;;;;2.10;1.33;;;12.30;99.90;;;;;;6220598;23;20562;-47
2022/10/16 07:34:07;;;;;;;2.20;1.20;;;12.30;99.90;;;;;;6246370;23;20194;-46
2022/10/16 07:36:34;;;;;;;3.43;1.23;;;12.30;99.90;;;;;;6245892;22;20493;-44
2022/10/16 07:38:59;;;;;;;2.93;1.43;;;12.30;99.90;;;;;;6246681;23;20545;-44
2022/10/16 07:41:25;;;;;;;2.30;1.30;;;12.40;99.90;;;;;;6246201;23;20151;-46
2022/10/16 07:43:52;;;;;;;4.03;1.50;;;12.50;99.90;;;;;;6246690;23;20178;-45
2022/10/16 07:46:19;;;;;;;2.97;1.47;;;12.60;99.90;;;;;;6246198;23;20148;-44
2022/10/16 07:48:47;;;;;;;1.57;1.33;;;12.80;99.90;;;;;;6219261;23;20179;-44
2022/10/16 07:51:14;;;;;;;3.10;1.60;;;12.90;99.90;;;;;;6246187;23;20148;-46
2022/10/16 07:53:40;;;;;;;2.83;1.40;;;13.10;99.90;;;;;;6246771;23;20237;-43
2022/10/16 07:56:07;;;;;;;4.70;1.90;;;13.20;99.90;;;;;;6246314;23;20167;-46
2022/10/16 07:58:33;;;;;;;2.70;1.43;;;13.30;99.90;;;;;;6246857;22;20183;-43
2022/10/16 08:01:03;;;;;;;3.13;1.97;;;13.40;99.90;;;;;;6249278;23;20470;-43
2022/10/16 08:03:29;;;;;;;6.57;1.50;;;13.50;99.90;;;;;;6248503;23;20202;-45
2022/10/16 08:05:57;;;;;;;1.67;1.50;;;13.60;99.90;;;;;;6248953;23;20155;-43
2022/10/16 08:08:23;;;;;;;2.17;1.30;;;13.70;99.90;;;;;;6248779;22;20221;-44
2022/10/16 08:10:48;;;;;;;1.97;1.10;;;13.80;99.90;;;;;;6249164;23;20148;-46
2022/10/16 08:13:14;;;;;;;1.93;1.23;;;13.90;99.90;;;;;;6250167;23;20143;-44
2022/10/16 08:15:43;;;;;;;3.97;1.27;;;14.00;99.90;;;;;;6251402;23;20197;-44
2022/10/16 08:18:10;;;;;;;6.03;2.60;;;14.00;99.90;;;;;;6251779;22;20556;-43
2022/10/16 08:20:36;;;;;;;2.90;1.37;;;14.10;99.90;;;;;;6253111;23;20155;-44
2022/10/16 08:23:03;;;;;;;2.60;1.20;;;14.20;99.90;;;;;;6252355;23;20179;-45
2022/10/16 08:25:29;;;;;;;3.80;1.27;;;14.40;99.90;;;;;;6251986;23;20202;-45
2022/10/16 08:27:55;;;;;;;2.83;1.00;;;14.40;99.90;;;;;;6249414;22;20625;-43
2022/10/16 08:30:23;;;;;;;2.57;0.80;;;14.50;99.90;;;;;;6248931;23;20151;-47
2022/10/16 08:32:48;;;;;;;2.53;1.13;;;14.60;99.90;;;;;;6248532;23;20230;-43
2022/10/16 08:35:16;;;;;;;2.50;1.07;;;14.60;99.90;;;;;;6247779;23;20183;-43
2022/10/16 08:37:43;;;;;;;1.93;1.03;;;14.80;99.90;;;;;;6246277;22;20183;-44
2022/10/16 08:40:32;;;;;;;2.93;1.10;;;14.90;99.90;;;;;;6247004;23;20156;-44
2022/10/16 08:43:26;;;;;;;2.03;1.07;;;15.00;99.90;;;;;;6246582;23;20167;-44
2022/10/16 08:46:08;;;;;;;1.73;1.20;;;15.00;99.90;;;;;;6247186;23;20562;-43
2022/10/16 08:48:49;;;;;;;1.30;0.83;;;15.10;99.90;;;;;;6245976;22;20209;-43
2022/10/16 08:51:28;;;;;;;2.17;0.90;;;15.20;99.90;;;;;;6246007;23;20143;-45
2022/10/16 08:54:30;;;;;;;1.70;1.00;;;15.30;99.90;;;;;;6219238;23;20582;-45
2022/10/16 08:57:16;;;;;;;2.03;0.90;;;15.40;99.90;;;;;;6170254;23;20203;-44
2022/10/16 08:59:42;;;;;;;0.97;0.90;;;15.50;99.90;;;;;;6246666;23;20152;-45
2022/10/16 09:02:34;;;;;;;4.97;0.93;;;15.60;99.90;;;;;;6246218;23;20156;-46
2022/10/16 09:05:23;;;;;;;2.40;1.10;;;15.60;99.90;;;;;;6246571;23;20140;-46
2022/10/16 09:08:07;;;;;;;2.73;0.80;;;15.80;99.90;;;;;;6246245;22;20302;-45
2022/10/16 09:11:00;;;;;;;2.77;0.87;;;15.90;99.90;;;;;;6246501;23;20147;-43
2022/10/16 09:13:42;;;;;;;1.83;0.80;;;15.90;99.90;;;;;;6246214;23;20585;-44
2022/10/16 09:16:24;;;;;;;0.83;0.63;;;16.00;99.90;;;;;;6246743;23;20699;-43
2022/10/16 09:19:16;;;;;;;3.23;0.90;;;16.10;99.90;;;;;;6246426;23;20155;-44
2022/10/16 09:21:44;;;;;;;4.70;0.90;;;16.20;99.90;;;;;;6246221;23;20152;-43
2022/10/16 09:24:16;;;;;;;1.60;0.70;;;16.20;99.90;;;;;;6246009;23;20172;-46
2022/10/16 09:26:42;;;;;;;1.43;0.57;;;16.30;99.90;;;;;;6246158;22;20140;-43
2022/10/16 09:29:16;;;;;;;1.97;0.73;;;16.40;99.90;;;;;;6246693;23;20501;-43
2022/10/16 09:31:43;;;;;;;2.07;0.53;;;16.40;99.90;;;;;;6246157;23;20144;-45
2022/10/16 09:34:22;;;;;;;1.17;0.53;;;16.50;99.90;;;;;;6245938;23;20153;-43
2022/10/16 09:36:49;;;;;;;0.97;0.60;;;16.50;99.90;;;;;;6240553;23;119503;-47
2022/10/16 09:39:14;;;;;;;3.60;0.60;;;16.60;99.90;;;;;;6247344;23;20289;-44
2022/10/16 09:41:44;;;;;;;2.53;0.83;;;16.70;99.90;;;;;;6247327;23;20159;-43
2022/10/16 09:44:36;;;;;;;1.70;0.70;;;16.70;99.90;;;;;;6221182;23;20179;-45
2022/10/16 09:47:12;;;;;;;2.20;0.63;;;16.80;99.90;;;;;;6241475;22;20176;-43
2022/10/16 09:49:38;;;;;;;6.20;1.00;;;16.80;99.90;;;;;;6247262;23;20253;-44
2022/10/16 09:52:12;;;;;;;2.67;0.97;;;16.90;99.90;;;;;;6247843;23;20581;-44
2022/10/16 09:54:49;;;;;;;0.63;0.50;;;16.90;99.90;;;;;;6220368;23;20594;-45
2022/10/16 09:57:15;;;;;;;2.00;0.60;;;16.90;99.90;;;;;;6220260;23;20179;-45
2022/10/16 09:59:49;;;;;;;0.90;0.53;;;17.00;99.90;;;;;;6220440;23;20243;-45
2022/10/16 10:02:18;;;;;;;0.90;0.53;;;17.00;99.90;;;;;;6220222;23;20620;-45
2022/10/16 10:04:54;;;;;;;4.47;0.80;;;17.00;99.90;;;;;;6247391;23;20221;-43
2022/10/16 10:07:28;;;;;;;3.10;0.80;;;17.00;99.90;;;;;;6247781;22;20179;-44
2022/10/16 10:09:56;;;;;;;3.93;0.83;;;17.10;99.90;;;;;;6246955;23;20140;-44
2022/10/16 10:12:24;;;;;;;2.87;0.80;;;17.10;99.90;;;;;;6247445;23;20201;-40
2022/10/16 10:14:56;;;;;;;2.57;0.60;;;17.10;99.90;;;;;;6246910;23;20598;-41
2022/10/16 10:17:24;;;;;;;2.90;0.67;;;17.10;99.90;;;;;;6246927;22;20172;-41
2022/10/16 10:20:20;;;;;;;3.03;0.83;;;17.00;99.90;;;;;;6246963;23;20183;-43
2022/10/16 10:22:46;;;;;;;7.50;0.90;;;17.00;99.90;;;;;;6225173;23;20689;-41
2022/10/16 10:25:11;;;;;;;0.93;0.60;;;17.10;99.90;;;;;;6247436;23;20148;-43
2022/10/16 10:27:48;;;;;;;4.20;1.07;;;17.20;99.90;;;;;;6246728;22;20483;-40
2022/10/16 10:30:29;;;;;;;4.10;0.60;;;17.20;99.90;;;;;;6246935;23;20171;-39
2022/10/16 10:33:28;;;;;;;3.13;0.90;;;17.20;99.90;;;;;;6247113;23;20154;-39
2022/10/16 10:36:18;;;;;;;4.37;0.90;;;17.30;99.90;;;;;;6246678;23;20237;-41
2022/10/16 10:38:43;;;;;;;2.03;0.90;;;17.40;99.90;;;;;;6246769;22;20198;-42
2022/10/16 10:41:30;;;;;;;1.57;0.50;;;17.50;99.90;;;;;;6246818;23;20223;-39
2022/10/16 10:44:16;;;;;;;0.93;0.50;;;17.60;99.90;;;;;;6246983;23;20546;-42
2022/10/16 10:46:44;;;;;;;2.50;0.80;;;17.70;99.90;;;;;;6247263;22;20464;-42
2022/10/16 10:49:39;;;;;;;2.63;0.73;;;17.80;99.90;;;;;;6246656;23;20152;-42
2022/10/16 10:52:39;;;;;;;1.37;0.77;;;18.00;99.90;;;;;;6246936;23;20152;-39
2022/10/16 10:55:33;;;;;;;6.30;1.00;;;18.10;99.90;;;;;;6225038;23;20160;-42
2022/10/16 10:58:13;;;;;;;3.33;0.80;;;18.20;99.90;;;;;;6219543;23;20176;-40
2022/10/16 11:01:10;;;;;;;1.37;0.60;;;18.30;99.90;;;;;;6246524;23;20136;-42
2022/10/16 11:03:46;;;;;;;5.13;0.60;;;18.30;99.90;;;;;;6246310;23;20631;-42
2022/10/16 11:06:24;;;;;;;3.17;0.67;;;18.40;99.90;;;;;;6246676;23;20219;-40
2022/10/16 11:09:08;;;;;;;2.73;0.77;;;18.50;99.90;;;;;;6246928;23;20139;-41
2022/10/16 11:11:51;;;;;;;4.47;0.60;;;18.60;99.90;;;;;;6246384;23;20143;-38
2022/10/16 11:14:26;;;;;;;3.30;0.70;;;18.70;99.90;;;;;;6246731;23;20168;-41
2022/10/16 11:17:19;;;;;;;4.33;0.80;;;18.80;99.90;;;;;;6246526;22;20225;-40
2022/10/16 11:19:50;;;;;;;1.23;0.67;;;18.90;99.90;;;;;;6246157;23;20167;-41
2022/10/16 11:22:21;;;;;;;1.13;0.50;;;19.00;99.90;;;;;;6246508;23;20144;-41
2022/10/16 11:25:04;;;;;;;1.43;0.73;;;19.00;99.90;;;;;;6246539;23;20148;-43
2022/10/16 11:27:40;;;;;;;2.57;0.60;;;19.00;99.90;;;;;;6246416;22;20171;-42
2022/10/16 11:30:16;;;;;;;2.47;0.63;;;19.20;99.90;;;;;;6246325;23;20147;-44
2022/10/16 11:33:08;;;;;;;2.27;0.70;;;19.30;99.90;;;;;;6246235;23;20205;-42
2022/10/16 11:35:44;;;;;;;2.50;0.70;;;19.40;99.90;;;;;;6219171;23;20210;-45
2022/10/16 11:38:30;;;;;;;4.27;0.70;;;19.50;99.90;;;;;;6246316;22;20514;-42
2022/10/16 11:41:02;;;;;;;2.77;0.77;;;19.60;99.90;;;;;;6246468;23;20143;-43
2022/10/16 11:43:46;;;;;;;2.27;0.63;;;19.70;99.90;;;;;;6246658;23;20193;-42
2022/10/16 11:46:21;;;;;;;1.53;0.77;;;19.90;99.90;;;;;;6219497;23;20147;-38
2022/10/16 11:49:00;;;;;;;2.13;0.50;;;19.90;99.90;;;;;;6245902;22;20174;-41
2022/10/16 11:51:39;;;;;;;2.43;0.90;;;19.90;99.90;;;;;;6219223;23;20152;-42
2022/10/16 11:54:21;;;;;;;1.67;0.53;;;20.00;99.90;;;;;;6246402;23;20144;-42
2022/10/16 11:56:50;;;;;;;1.50;0.70;;;20.00;99.90;;;;;;6219344;22;20179;-42
2022/10/16 11:59:32;;;;;;;5.40;0.90;;;20.10;99.90;;;;;;6246008;23;20642;-42
2022/10/16 12:02:09;;;;;;;2.47;0.70;;;20.10;99.90;;;;;;6245956;23;20140;-41
2022/10/16 12:04:58;;;;;;;2.97;0.70;;;20.20;99.90;;;;;;6245916;23;20147;-42
2022/10/16 12:07:32;;;;;;;1.83;0.50;;;20.20;99.90;;;;;;6246178;22;20186;-41
2022/10/16 12:10:00;;;;;;;1.07;0.47;;;20.30;99.90;;;;;;6246246;23;20229;-42
2022/10/16 12:12:27;;;;;;;2.10;0.60;;;20.30;99.90;;;;;;6245952;23;20177;-42
2022/10/16 12:15:19;;;;;;;1.50;0.70;;;20.40;99.90;;;;;;6248412;23;20246;-43
2022/10/16 12:17:44;;;;;;;0.97;0.43;;;20.40;99.90;;;;;;6224114;23;20190;-38
2022/10/16 12:20:16;;;;;;;1.20;0.60;;;20.50;99.90;;;;;;6249739;23;20206;-43
2022/10/16 12:22:49;;;;;;;1.50;0.50;;;20.60;99.90;;;;;;6218955;23;20187;-41
2022/10/16 12:25:31;;;;;;;1.03;0.40;;;20.70;99.90;;;;;;6246137;23;20144;-39
2022/10/16 12:28:04;;;;;;;2.50;0.47;;;20.80;99.90;;;;;;6246173;22;20179;-42
2022/10/16 12:30:33;;;;;;;1.27;0.77;;;20.80;99.90;;;;;;6246886;23;20144;-39
2022/10/16 12:33:05;;;;;;;0.57;0.40;;;20.80;99.90;;;;;;6245787;23;20156;-43
2022/10/16 12:35:43;;;;;;;0.73;0.60;;;20.80;99.90;;;;;;6218848;23;20226;-40
2022/10/16 12:38:31;;;;;;;1.43;0.60;;;20.80;99.90;;;;;;6245757;22;20171;-41
2022/10/16 12:41:08;;;;;;;2.80;0.70;;;20.90;99.90;;;;;;6246190;23;20501;-43
2022/10/16 12:43:45;;;;;;;3.43;0.70;;;20.80;99.90;;;;;;6246227;23;20226;-41
2022/10/16 12:46:13;;;;;;;1.43;0.57;;;20.80;99.90;;;;;;6220395;23;20202;-43
2022/10/16 12:48:43;;;;;;;1.40;0.43;;;20.90;99.90;;;;;;6247616;22;20202;-41
2022/10/16 12:51:25;;;;;;;1.37;0.50;;;21.00;99.90;;;;;;6247915;23;20159;-40
2022/10/16 12:54:22;;;;;;;2.33;0.60;;;21.20;99.90;;;;;;6247915;23;20151;-39
2022/10/16 12:57:06;;;;;;;2.43;0.47;;;21.30;99.90;;;;;;6231534;22;20179;-39
2022/10/16 12:59:56;;;;;;;1.47;0.60;;;21.30;99.90;;;;;;6247951;23;20154;-39
2022/10/16 13:02:42;;;;;;;3.70;0.70;;;21.50;99.90;;;;;;6247686;23;20136;-42
2022/10/16 13:05:26;;;;;;;2.00;0.60;;;21.50;99.90;;;;;;6226600;23;20262;-42
2022/10/16 13:08:12;;;;;;;3.13;1.10;;;21.50;99.90;;;;;;6248314;22;20172;-39
2022/10/16 13:10:56;;;;;;;0.83;0.47;;;21.60;99.90;;;;;;6248242;23;20145;-40